Akeeva — WDE7272 — position and weather

sailwx.info

Track history (hours):
 
Tides and Currents Weather Stations Pressure Air Temp Water Temp Dewpoint Dewpoint Depression Visibility Wind Speed Wind Dir Waves Ship Positions

Akeeva

Owner: Cann, John P, Vancouver, WA. More information available from US FCC via Universal Licensing System and Coast Guard Vessel Documentation Center.

Last reported at 2016-Aug-27 04:33 UTC. Time now 2016-Aug-31 07:54 UTC.
Position N 47°40' W 122°26'.

Length 16 m.

Type: Pleasure craft. MMSI: 367391170.

Date/timePositionNaut miles runAvg speedWind from/ knotsBaromVisibWave heightAir tempDewpointWater temp
2016-Aug-27 04:33N 47°40' W 122°26'5 4.4
2016-Aug-27 03:24N 47°37' W 122°21'5 5.8
2016-Aug-27 02:33N 47°40' W 122°27'  
2016-Aug-21 23:10N 47°41' W 122°24'0 0.0
2016-Aug-21 18:10N 47°41' W 122°24'0 0.0
2016-Aug-21 17:31N 47°41' W 122°24'0 0.0
2016-Aug-21 16:33N 47°41' W 122°24'0 0.0
2016-Aug-21 06:33N 47°41' W 122°25'6 5.4
2016-Aug-21 05:25N 47°36' W 122°30'0 0.0
2016-Aug-21 03:19N 47°36' W 122°30'4 5.1
2016-Aug-21 02:33N 47°39' W 122°27'2 0.1
2016-Aug-19 22:33N 47°41' W 122°24'0 0.0
2016-Aug-19 21:33N 47°41' W 122°24'0 0.0
2016-Aug-19 20:33N 47°41' W 122°24'0 0.0
2016-Aug-19 19:30N 47°41' W 122°24'0 0.0
2016-Aug-19 18:33N 47°41' W 122°24'0 0.0
2016-Aug-19 17:33N 47°41' W 122°24'0 0.0
2016-Aug-19 16:33N 47°41' W 122°24'0 0.0
2016-Aug-19 15:33N 47°41' W 122°24'0 0.0
2016-Aug-19 14:33N 47°41' W 122°24'0 0.0
2016-Aug-19 13:33N 47°41' W 122°24'0 0.0
2016-Aug-19 12:33N 47°41' W 122°24'0 0.0
2016-Aug-19 11:33N 47°41' W 122°24'0 0.0
2016-Aug-19 10:33N 47°41' W 122°24'0 0.0
2016-Aug-19 09:33N 47°41' W 122°24'0 0.0
2016-Aug-19 08:33N 47°41' W 122°24'0 0.0
2016-Aug-19 07:33N 47°41' W 122°24'0 0.0
2016-Aug-19 06:33N 47°41' W 122°24'0 0.0
2016-Aug-19 05:33N 47°41' W 122°24'0 0.0
2016-Aug-19 04:33N 47°41' W 122°24'0 0.0
2016-Aug-19 03:33N 47°41' W 122°24'0 0.0
2016-Aug-19 02:33N 47°41' W 122°24'0 0.0
2016-Aug-19 01:33N 47°41' W 122°24'0 0.0
2016-Aug-19 00:33N 47°41' W 122°24'0 0.0
2016-Aug-18 23:33N 47°41' W 122°24'0 0.0
2016-Aug-18 22:33N 47°41' W 122°24'0 0.0
2016-Aug-18 21:33N 47°41' W 122°24'0 0.0
2016-Aug-18 20:33N 47°41' W 122°24'0 0.0
2016-Aug-18 19:33N 47°41' W 122°24'0 0.0
2016-Aug-18 18:33N 47°41' W 122°24'0 0.0
2016-Aug-18 17:33N 47°41' W 122°24'0 0.0
2016-Aug-18 16:33N 47°41' W 122°24'0 0.0
2016-Aug-18 15:33N 47°41' W 122°24'0 0.0
2016-Aug-18 14:33N 47°41' W 122°24'0 0.0
2016-Aug-18 13:33N 47°41' W 122°24'0 0.0
2016-Aug-18 12:33N 47°41' W 122°24'0 0.0
2016-Aug-18 11:33N 47°41' W 122°24'0 0.0
2016-Aug-18 10:33N 47°41' W 122°24'0 0.0
2016-Aug-18 09:33N 47°41' W 122°24'0 0.0
2016-Aug-18 08:30N 47°41' W 122°24'0 0.0
2016-Aug-18 07:33N 47°41' W 122°24'0 0.0
2016-Aug-18 06:33N 47°41' W 122°24'0 0.0
2016-Aug-18 05:33N 47°41' W 122°24'0 0.0
2016-Aug-18 04:33N 47°41' W 122°24'0 0.0
2016-Aug-18 03:33N 47°41' W 122°24'0 0.0
2016-Aug-18 02:33N 47°41' W 122°24'  
Track history (hours):
 
Tides and Currents Weather Stations Pressure Air Temp Water Temp Dewpoint Dewpoint Depression Visibility Wind Speed Wind Dir Waves Ship Positions

Akeeva

Owner: Cann, John P, Vancouver, WA. More information available from US FCC via Universal Licensing System and Coast Guard Vessel Documentation Center.

Last reported at 2016-Aug-27 04:33 UTC. Time now 2016-Aug-31 07:54 UTC.
Position N 47°40' W 122°26'.

Length 16 m.

Type: Pleasure craft. MMSI: 367391170.

Date/timePositionNaut miles runAvg speedWind from/ knotsBaromVisibWave heightAir tempDewpointWater temp
2016-Aug-27 04:33N 47°40' W 122°26'5 4.4
2016-Aug-27 03:24N 47°37' W 122°21'5 5.8
2016-Aug-27 02:33N 47°40' W 122°27'  
2016-Aug-21 23:10N 47°41' W 122°24'0 0.0
2016-Aug-21 18:10N 47°41' W 122°24'0 0.0
2016-Aug-21 17:31N 47°41' W 122°24'0 0.0
2016-Aug-21 16:33N 47°41' W 122°24'0 0.0
2016-Aug-21 06:33N 47°41' W 122°25'6 5.4
2016-Aug-21 05:25N 47°36' W 122°30'0 0.0
2016-Aug-21 03:19N 47°36' W 122°30'4 5.1
2016-Aug-21 02:33N 47°39' W 122°27'2 0.1
2016-Aug-19 22:33N 47°41' W 122°24'0 0.0
2016-Aug-19 21:33N 47°41' W 122°24'0 0.0
2016-Aug-19 20:33N 47°41' W 122°24'0 0.0
2016-Aug-19 19:30N 47°41' W 122°24'0 0.0
2016-Aug-19 18:33N 47°41' W 122°24'0 0.0
2016-Aug-19 17:33N 47°41' W 122°24'0 0.0
2016-Aug-19 16:33N 47°41' W 122°24'0 0.0
2016-Aug-19 15:33N 47°41' W 122°24'0 0.0
2016-Aug-19 14:33N 47°41' W 122°24'0 0.0
2016-Aug-19 13:33N 47°41' W 122°24'0 0.0
2016-Aug-19 12:33N 47°41' W 122°24'0 0.0
2016-Aug-19 11:33N 47°41' W 122°24'0 0.0
2016-Aug-19 10:33N 47°41' W 122°24'0 0.0
2016-Aug-19 09:33N 47°41' W 122°24'0 0.0
2016-Aug-19 08:33N 47°41' W 122°24'0 0.0
2016-Aug-19 07:33N 47°41' W 122°24'0 0.0
2016-Aug-19 06:33N 47°41' W 122°24'0 0.0
2016-Aug-19 05:33N 47°41' W 122°24'0 0.0
2016-Aug-19 04:33N 47°41' W 122°24'0 0.0
2016-Aug-19 03:33N 47°41' W 122°24'0 0.0
2016-Aug-19 02:33N 47°41' W 122°24'0 0.0
2016-Aug-19 01:33N 47°41' W 122°24'0 0.0
2016-Aug-19 00:33N 47°41' W 122°24'0 0.0
2016-Aug-18 23:33N 47°41' W 122°24'0 0.0
2016-Aug-18 22:33N 47°41' W 122°24'0 0.0
2016-Aug-18 21:33N 47°41' W 122°24'0 0.0
2016-Aug-18 20:33N 47°41' W 122°24'0 0.0
2016-Aug-18 19:33N 47°41' W 122°24'0 0.0
2016-Aug-18 18:33N 47°41' W 122°24'0 0.0
2016-Aug-18 17:33N 47°41' W 122°24'0 0.0
2016-Aug-18 16:33N 47°41' W 122°24'0 0.0
2016-Aug-18 15:33N 47°41' W 122°24'0 0.0
2016-Aug-18 14:33N 47°41' W 122°24'0 0.0
2016-Aug-18 13:33N 47°41' W 122°24'0 0.0
2016-Aug-18 12:33N 47°41' W 122°24'0 0.0
2016-Aug-18 11:33N 47°41' W 122°24'0 0.0
2016-Aug-18 10:33N 47°41' W 122°24'0 0.0
2016-Aug-18 09:33N 47°41' W 122°24'0 0.0
2016-Aug-18 08:30N 47°41' W 122°24'0 0.0
2016-Aug-18 07:33N 47°41' W 122°24'0 0.0
2016-Aug-18 06:33N 47°41' W 122°24'0 0.0
2016-Aug-18 05:33N 47°41' W 122°24'0 0.0
2016-Aug-18 04:33N 47°41' W 122°24'0 0.0
2016-Aug-18 03:33N 47°41' W 122°24'0 0.0
2016-Aug-18 02:33N 47°41' W 122°24'  

Dump ship's entire track history